Data for 04/05/2015

Time Sea-Level Adjusted Pressure Absolute Pressure Temperature Relative Humidity Dew Point   
(mb) (inHg) (mb) (inHg) (C) (F) (%) (C) (F)
00:05 1014 29.94 843 24.89 0.8 33.4 89 -0.9 30.4
00:10 1014 29.94 843 24.89 0.8 33.5 88 -0.9 30.4
00:15 1014 29.94 843 24.89 0.8 33.5 88 -0.9 30.3
00:20 1014 29.94 843 24.89 0.8 33.5 88 -0.9 30.3
00:25 1013 29.91 843 24.89 0.8 33.5 88 -0.9 30.3
00:30 1013 29.91 843 24.89 0.8 33.4 88 -1 30.2
00:35 1013 29.91 843 24.89 0.8 33.4 88 -1 30.3
00:40 1013 29.91 842 24.86 0.7 33.3 88 -1.1 30.1
00:45 1013 29.91 842 24.86 0.8 33.4 88 -1 30.1
00:50 1013 29.91 842 24.86 0.7 33.3 88 -1 30.1
00:55 1013 29.91 842 24.86 0.7 33.3 88 -1 30.1
01:00 1013 29.91 842 24.86 0.7 33.2 88 -1.1 30
01:05 1013 29.91 842 24.86 0.7 33.3 87 -1.2 29.9
01:10 1013 29.91 842 24.86 0.7 33.3 87 -1.2 29.9
01:15 1013 29.91 842 24.86 0.7 33.2 87 -1.2 29.8
01:20 1013 29.91 842 24.86 0.7 33.2 87 -1.3 29.7
01:25 1013 29.91 842 24.86 0.6 33.2 87 -1.3 29.6
01:30 1013 29.91 842 24.86 0.6 33.1 87 -1.3 29.7
01:35 1013 29.91 842 24.86 0.5 33 87 -1.3 29.6
01:40 1013 29.91 842 24.86 0.5 32.9 88 -1.3 29.7
01:45 1012 29.88 842 24.86 0.4 32.7 87 -1.4 29.4
01:50 1012 29.88 842 24.86 0.3 32.5 88 -1.5 29.3
01:55 1012 29.88 841 24.83 0.2 32.4 88 -1.5 29.3
02:00 1012 29.88 841 24.83 0.1 32.2 89 -1.5 29.3
02:05 1012 29.88 841 24.83 0 32 89 -1.6 29.2
02:10 1012 29.88 841 24.83 -0 32 89 -1.6 29.1
02:15 1012 29.88 841 24.83 0.1 32.1 88 -1.7 29
02:20 1012 29.88 841 24.83 0 32.1 87 -1.9 28.5
02:25 1012 29.88 841 24.83 0.1 32.2 85 -2.1 28.2
02:30 1012 29.88 841 24.83 0.2 32.3 83 -2.4 27.6
02:35 1012 29.88 841 24.83 0.2 32.4 83 -2.3 27.8
02:40 1012 29.88 841 24.83 0.2 32.3 83 -2.3 27.8
02:45 1012 29.88 841 24.83 0.1 32.2 84 -2.3 27.8
02:50 1012 29.88 841 24.83 0.1 32.1 85 -2.2 28
02:55 1012 29.88 841 24.83 0.2 32.4 87 -1.8 28.8
03:00 1012 29.88 841 24.83 0.2 32.4 89 -1.3 29.6
03:05 1012 29.88 841 24.83 -0 32 91 -1.3 29.6
03:10 1012 29.88 841 24.83 -0.2 31.7 92 -1.4 29.5
03:15 1012 29.88 841 24.83 -0.4 31.4 92 -1.5 29.3
03:20 1012 29.88 841 24.83 -0.6 31 92 -1.6 29
03:25 1012 29.88 841 24.83 -0.7 30.8 93 -1.7 29
03:30 1012 29.88 841 24.83 -0.8 30.6 94 -1.7 29
03:35 1012 29.88 841 24.83 -0.7 30.7 94 -1.6 29.1
03:40 1012 29.88 841 24.83 -0.7 30.7 94 -1.6 29.1
03:45 1012 29.88 841 24.83 -0.7 30.7 94 -1.5 29.3
03:50 1012 29.88 841 24.83 -0.7 30.7 94 -1.6 29.2
03:55 1012 29.88 841 24.83 -0.8 30.6 95 -1.5 29.3
04:00 1012 29.88 841 24.83 -0.8 30.6 95 -1.5 29.3
04:05 1012 29.88 841 24.83 -0.8 30.6 95 -1.5 29.3
04:10 1012 29.88 841 24.83 -0.8 30.5 95 -1.6 29.2
04:15 1012 29.88 841 24.83 -0.8 30.5 95 -1.5 29.3
04:20 1012 29.88 841 24.83 -0.8 30.6 95 -1.4 29.5
04:25 1012 29.88 841 24.83 -0.7 30.7 95 -1.4 29.5
04:30 1012 29.88 841 24.83 -0.9 30.4 95 -1.5 29.2
04:35 1011 29.85 841 24.83 -0.9 30.3 96 -1.5 29.2
04:40 1011 29.85 841 24.83 -0.9 30.4 96 -1.5 29.3
04:45 1011 29.85 841 24.83 -1 30.3 96 -1.6 29.2
04:50 1011 29.85 841 24.83 -1.1 30.1 96 -1.6 29
04:55 1011 29.85 841 24.83 -1 30.2 96 -1.6 29.1
05:00 1011 29.85 840 24.81 -1 30.2 96 -1.6 29.1
05:05 1011 29.85 840 24.81 -1.1 30.1 96 -1.6 29.1
05:10 1011 29.85 840 24.81 -1.2 29.9 96 -1.7 28.9
05:15 1011 29.85 840 24.81 -1.2 29.9 96 -1.7 28.9
05:20 1011 29.85 840 24.81 -1.3 29.6 96 -1.8 28.7
05:25 1011 29.85 840 24.81 -1.2 29.8 96 -1.8 28.8
05:30 1011 29.85 840 24.81 -1.3 29.7 96 -1.8 28.7
05:35 1011 29.85 840 24.81 -1.3 29.6 96 -1.8 28.7
05:40 1011 29.85 840 24.81 -1.4 29.5 96 -1.9 28.6
05:45 1011 29.85 840 24.81 -1.5 29.2 96 -2.1 28.2
05:50 1011 29.85 840 24.81 -1.6 29.1 96 -2.1 28.2
05:55 1011 29.85 840 24.81 -1.5 29.3 96 -2 28.4
06:00 1011 29.85 840 24.81 -1.4 29.4 96 -1.9 28.5
06:05 1011 29.85 840 24.81 -1.5 29.4 96 -2 28.4
06:10 1011 29.85 840 24.81 -1.5 29.3 96 -2 28.4
06:15 1011 29.85 840 24.81 -1.5 29.3 96 -2 28.4
06:20 1011 29.85 840 24.81 -1.5 29.4 96 -2 28.5
06:25 1011 29.85 840 24.81 -1.5 29.4 96 -2 28.5
06:30 1011 29.85 840 24.81 -1.4 29.5 97 -1.9 28.6
06:35 1011 29.85 840 24.81 -1.4 29.5 96 -1.9 28.6
06:40 1011 29.85 840 24.81 -1.4 29.4 96 -1.9 28.5
06:45 1011 29.85 840 24.81 -1.4 29.5 97 -1.9 28.6
06:50 1011 29.85 840 24.81 -1.4 29.6 97 -1.8 28.7
06:55 1011 29.85 840 24.81 -1.4 29.4 96 -1.9 28.5
07:00 1011 29.85 840 24.81 -1.3 29.6 96 -1.8 28.7
07:05 1011 29.85 840 24.81 -1.2 29.8 97 -1.7 28.9
07:10 1011 29.85 840 24.81 -1.2 29.8 97 -1.7 28.9
07:15 1010 29.83 840 24.81 -1.3 29.6 97 -1.8 28.8
07:20 1010 29.83 840 24.81 -1.4 29.6 97 -1.8 28.7
07:25 1010 29.83 840 24.81 -1.4 29.5 96 -1.9 28.6
07:30 1010 29.83 839 24.78 -1.4 29.4 97 -1.9 28.6
07:35 1010 29.83 839 24.78 -1.4 29.5 97 -1.9 28.6
07:40 1010 29.83 839 24.78 -1.4 29.5 97 -1.9 28.7
07:45 1010 29.83 839 24.78 -1.3 29.6 96 -1.8 28.7
07:50 1010 29.83 839 24.78 -1.3 29.7 96 -1.8 28.8
07:55 1010 29.83 839 24.78 -1.1 30 96 -1.6 29.1
08:00 1010 29.83 839 24.78 -1 30.2 96 -1.5 29.3
08:05 1010 29.83 839 24.78 -0.8 30.5 96 -1.4 29.5
08:10 1010 29.83 839 24.78 -0.5 31.1 96 -1.1 29.9
08:15 1009 29.8 839 24.78 -0 31.9 92 -1.2 29.9
08:20 1009 29.8 839 24.78 0.2 32.4 89 -1.3 29.7
08:25 1009 29.8 839 24.78 0.4 32.7 89 -1.2 29.9
08:30 1009 29.8 839 24.78 0.4 32.8 89 -1.2 29.8
08:35 1009 29.8 838 24.75 0.5 32.9 87 -1.4 29.6
08:40 1009 29.8 838 24.75 0.6 33.2 87 -1.3 29.6
08:45 1009 29.8 838 24.75 0.7 33.2 85 -1.5 29.2
08:50 1009 29.8 838 24.75 0.7 33.3 85 -1.5 29.3
08:55 1009 29.8 838 24.75 0.7 33.3 87 -1.2 29.8
09:00 1009 29.8 839 24.78 0.5 32.9 89 -1.1 29.9
09:05 1009 29.8 839 24.78 0.1 32.2 91 -1.3 29.7
09:10 1009 29.8 839 24.78 -0.2 31.6 93 -1.3 29.7
09:15 1009 29.8 839 24.78 -0.1 31.9 92 -1.2 29.9
09:20 1009 29.8 839 24.78 -0.2 31.7 93 -1.2 29.8
09:25 1009 29.8 839 24.78 -0.3 31.4 93 -1.3 29.6
09:30 1009 29.8 839 24.78 -0.3 31.5 93 -1.2 29.8
09:35 1009 29.8 839 24.78 -0.3 31.4 93 -1.3 29.7
09:40 1009 29.8 839 24.78 -0.5 31.2 94 -1.4 29.6
09:45 1009 29.8 839 24.78 -0.6 31 94 -1.4 29.5
09:50 1009 29.8 838 24.75 -0.6 30.9 95 -1.4 29.5
09:55 1009 29.8 839 24.78 -0.6 30.9 95 -1.3 29.6
10:00 1009 29.8 838 24.75 -0.5 31.2 94 -1.3 29.7
10:05 1009 29.8 838 24.75 -0.3 31.5 94 -1.1 30
10:10 1009 29.8 838 24.75 -0.1 31.8 93 -1.2 29.9
10:15 1009 29.8 838 24.75 0.1 32.2 91 -1.2 29.9
10:20 1009 29.8 838 24.75 0.1 32.2 90 -1.3 29.6
10:25 1009 29.8 838 24.75 0.3 32.5 90 -1.1 30
10:30 1009 29.8 838 24.75 0.6 33.1 89 -1 30.2
10:35 1009 29.8 838 24.75 0.9 33.6 89 -0.8 30.6
10:40 1009 29.8 838 24.75 1.2 34.2 86 -0.9 30.5
10:45 1009 29.8 838 24.75 1.3 34.4 86 -0.7 30.7
10:50 1009 29.8 838 24.75 1.5 34.6 87 -0.5 31.1
10:55 1009 29.8 838 24.75 1.1 34 89 -0.4 31.2
11:00 1009 29.8 838 24.75 0.8 33.4 90 -0.6 30.9
11:05 1009 29.8 838 24.75 0.7 33.3 91 -0.6 31
11:10 1008 29.77 838 24.75 0.7 33.3 91 -0.6 30.9
11:15 1009 29.8 838 24.75 0.9 33.6 91 -0.4 31.3
11:20 1009 29.8 838 24.75 1.2 34.2 90 -0.2 31.6
11:25 1009 29.8 838 24.75 1.5 34.6 88 -0.3 31.5
11:30 1009 29.8 838 24.75 1.8 35.3 89 0.3 32.5
11:35 1008 29.77 838 24.75 2.6 36.6 84 0.2 32.3
11:40 1008 29.77 838 24.75 2.5 36.5 85 0.3 32.5
11:45 1008 29.77 837 24.72 2.1 35.8 87 0.2 32.4
11:50 1008 29.77 837 24.72 2.7 36.9 76 -1.1 30
11:55 1008 29.77 837 24.72 3.1 37.7 73 -1.2 29.8
12:00 1008 29.77 837 24.72 3.1 37.5 69 -2 28.4
12:05 1009 29.8 838 24.75 3 37.4 72 -1.6 29.1
12:10 1009 29.8 838 24.75 2.7 36.8 82 -0.1 31.8
12:15 1009 29.8 838 24.75 2.2 36 84 -0.3 31.5
12:20 1008 29.77 838 24.75 2.1 35.8 84 -0.3 31.5
12:25 1008 29.77 838 24.75 2.7 36.8 83 0.1 32.1
12:30 1008 29.77 838 24.75 2.8 37 82 -0.1 31.9
12:35 1009 29.8 838 24.75 2.1 35.7 87 0.1 32.1
12:40 1009 29.8 838 24.75 1.5 34.7 88 -0.3 31.4
12:45 1009 29.8 838 24.75 1.1 34 90 -0.4 31.3
12:50 1009 29.8 838 24.75 0.9 33.6 92 -0.3 31.4
12:55 1009 29.8 838 24.75 0.8 33.5 91 -0.5 31.2
13:00 1009 29.8 838 24.75 0.8 33.4 91 -0.5 31.2
13:05 1009 29.8 838 24.75 0.9 33.6 91 -0.4 31.3
13:10 1009 29.8 838 24.75 0.8 33.4 91 -0.5 31
13:15 1009 29.8 838 24.75 0.7 33.2 92 -0.5 31.1
13:20 1009 29.8 838 24.75 0.9 33.6 92 -0.3 31.5
13:25 1009 29.8 838 24.75 1 33.7 90 -0.4 31.2
13:30 1009 29.8 838 24.75 0.6 33.2 91 -0.7 30.8
13:35 1009 29.8 838 24.75 0.6 33 92 -0.7 30.8
13:40 1009 29.8 838 24.75 0.8 33.5 90 -0.6 30.9
13:45 1009 29.8 838 24.75 0.8 33.4 92 -0.4 31.2
13:50 1009 29.8 838 24.75 0.9 33.6 90 -0.5 31.1
13:55 1009 29.8 838 24.75 1.2 34.2 90 -0.2 31.6
14:00 1009 29.8 838 24.75 1.6 34.8 88 -0.2 31.6
14:05 1009 29.8 838 24.75 1.6 34.8 89 -0.1 31.8
14:10 1009 29.8 838 24.75 1.6 34.9 89 0.1 32.1
14:15 1009 29.8 838 24.75 1.6 34.8 89 -0 31.9
14:20 1009 29.8 838 24.75 1.4 34.5 88 -0.4 31.3
14:25 1009 29.8 838 24.75 1.1 34 90 -0.4 31.3
14:30 1009 29.8 838 24.75 1.1 34 91 -0.3 31.5
14:35 1009 29.8 838 24.75 1.2 34.2 90 -0.2 31.6
14:40 1009 29.8 838 24.75 1.2 34.1 90 -0.2 31.6
14:45 1009 29.8 838 24.75 1.1 34 90 -0.3 31.5
14:50 1009 29.8 838 24.75 0.9 33.7 90 -0.5 31.2
14:55 1009 29.8 839 24.78 0.9 33.6 91 -0.4 31.2
15:00 1009 29.8 839 24.78 0.8 33.4 92 -0.4 31.2
15:05 1010 29.83 839 24.78 0.7 33.3 92 -0.4 31.2
15:10 1009 29.8 839 24.78 0.8 33.5 91 -0.4 31.3
15:15 1010 29.83 839 24.78 0.8 33.5 91 -0.4 31.2
15:20 1010 29.83 839 24.78 0.8 33.4 92 -0.4 31.3
15:25 1009 29.8 839 24.78 0.9 33.6 92 -0.3 31.5
15:30 1009 29.8 839 24.78 1 33.8 91 -0.3 31.4
15:35 1009 29.8 839 24.78 1.1 33.9 91 -0.3 31.5
15:40 1009 29.8 839 24.78 1.4 34.5 91 -0 32
15:45 1009 29.8 839 24.78 1.7 35 89 -0 32
15:50 1009 29.8 839 24.78 1.5 34.7 89 -0.1 31.8
15:55 1009 29.8 839 24.78 1.4 34.6 89 -0.2 31.7
16:00 1009 29.8 839 24.78 1.6 34.8 89 -0.1 31.9
16:05 1009 29.8 839 24.78 1.4 34.5 89 -0.2 31.7
16:10 1009 29.8 839 24.78 1.3 34.4 90 -0.1 31.7
16:15 1009 29.8 839 24.78 1.3 34.4 90 -0.2 31.6
16:20 1010 29.83 839 24.78 1.1 34 90 -0.3 31.5
16:25 1010 29.83 839 24.78 1 33.8 91 -0.4 31.4
16:30 1010 29.83 839 24.78 1.1 34 91 -0.2 31.6
16:35 1010 29.83 839 24.78 1.3 34.4 92 0.1 32.2
16:40 1010 29.83 839 24.78 1.7 35.1 90 0.2 32.4
16:45 1010 29.83 839 24.78 1.9 35.5 88 0.2 32.3
16:50 1010 29.83 839 24.78 2.1 35.7 87 0.1 32.2
16:55 1010 29.83 839 24.78 2 35.6 84 -0.5 31.2
17:00 1010 29.83 839 24.78 1.7 35 84 -0.7 30.8
17:05 1010 29.83 839 24.78 1.6 34.9 84 -0.7 30.7
17:10 1010 29.83 839 24.78 1.5 34.7 84 -1 30.3
17:15 1010 29.83 839 24.78 1.3 34.3 83 -1.4 29.5
17:20 1010 29.83 839 24.78 1.1 33.9 82 -1.7 29
17:25 1010 29.83 839 24.78 1 33.8 82 -1.7 29
17:30 1010 29.83 839 24.78 1 33.9 79 -2.2 28.1
17:35 1010 29.83 839 24.78 1 33.9 81 -1.8 28.7
17:40 1010 29.83 839 24.78 0.9 33.6 81 -2 28.3
17:45 1010 29.83 839 24.78 0.8 33.4 78 -2.7 27.2
17:50 1010 29.83 839 24.78 0.7 33.3 79 -2.4 27.6
17:55 1010 29.83 839 24.78 0.6 33 82 -2.2 28.1
18:00 1010 29.83 839 24.78 0.3 32.6 82 -2.5 27.6
18:05 1010 29.83 839 24.78 0.2 32.4 81 -2.6 27.4
18:10 1010 29.83 839 24.78 0.1 32.2 82 -2.6 27.3
18:15 1010 29.83 839 24.78 0 32.1 82 -2.7 27.1
18:20 1010 29.83 839 24.78 0 32.1 81 -2.9 26.8
18:25 1010 29.83 839 24.78 0 32.1 80 -3 26.6
18:30 1010 29.83 839 24.78 -0.1 31.8 81 -3 26.7
18:35 1010 29.83 839 24.78 -0.2 31.7 82 -2.9 26.7
18:40 1010 29.83 839 24.78 -0.3 31.5 84 -2.6 27.3
18:45 1010 29.83 839 24.78 -0.6 30.9 88 -2.4 27.7
18:50 1010 29.83 839 24.78 -0.9 30.4 90 -2.4 27.8
18:55 1010 29.83 839 24.78 -1.1 30 91 -2.3 27.8
19:00 1010 29.83 839 24.78 -1.3 29.7 92 -2.4 27.7
19:05 1010 29.83 839 24.78 -1.3 29.7 90 -2.8 27
19:10 1010 29.83 839 24.78 -1.1 30.1 87 -2.9 26.8
19:15 1010 29.83 839 24.78 -0.9 30.3 85 -3.1 26.4
19:20 1010 29.83 839 24.78 -0.8 30.5 84 -3.1 26.3
19:25 1010 29.83 839 24.78 -0.8 30.6 82 -3.4 25.8
19:30 1010 29.83 839 24.78 -0.7 30.7 82 -3.4 25.8
19:35 1010 29.83 839 24.78 -0.9 30.4 86 -3 26.7
19:40 1010 29.83 839 24.78 -1.1 30 87 -2.9 26.7
19:45 1010 29.83 839 24.78 -1.1 29.9 85 -3.3 26.1
19:50 1010 29.83 839 24.78 -1 30.1 85 -3.2 26.3
19:55 1010 29.83 839 24.78 -1.1 30 87 -3.1 26.4
20:00 1010 29.83 839 24.78 -1.2 29.8 87 -3.1 26.5
20:05 1010 29.83 839 24.78 -1.4 29.5 89 -3 26.7
20:10 1010 29.83 839 24.78 -1.5 29.3 90 -3 26.7
20:15 1010 29.83 839 24.78 -1.5 29.3 89 -3.1 26.4
20:20 1010 29.83 839 24.78 -1.5 29.3 89 -3.1 26.4
20:25 1010 29.83 840 24.81 -1.5 29.3 89 -3.1 26.4
20:30 1010 29.83 840 24.81 -1.5 29.4 88 -3.2 26.2
20:35 1010 29.83 840 24.81 -1.4 29.4 88 -3.2 26.3
20:40 1010 29.83 840 24.81 -1.5 29.3 89 -3 26.6
20:45 1010 29.83 840 24.81 -1.7 29 92 -2.8 26.9
20:50 1010 29.83 840 24.81 -1.8 28.7 93 -2.9 26.9
20:55 1011 29.85 840 24.81 -1.8 28.7 92 -2.9 26.8
21:00 1011 29.85 840 24.81 -1.7 28.9 92 -2.9 26.7
21:05 1011 29.85 840 24.81 -1.7 29 90 -3.1 26.5
21:10 1011 29.85 840 24.81 -1.5 29.3 87 -3.4 25.9
21:15 1011 29.85 840 24.81 -1.3 29.6 86 -3.4 25.8
21:20 1011 29.85 840 24.81 -1.3 29.7 84 -3.6 25.4
21:25 1010 29.83 840 24.81 -1.2 29.9 82 -3.8 25.2
21:30 1010 29.83 839 24.78 -1.2 29.9 82 -3.9 25
21:35 1010 29.83 839 24.78 -1.1 30 82 -3.9 25
21:40 1010 29.83 839 24.78 -1.2 29.9 82 -3.9 24.9
21:45 1010 29.83 839 24.78 -1.2 29.8 83 -3.8 25.2
21:50 1010 29.83 839 24.78 -1.3 29.7 83 -3.9 25.1
21:55 1010 29.83 839 24.78 -1.3 29.6 83 -3.9 25
22:00 1010 29.83 839 24.78 -1.3 29.7 82 -4 24.8
22:05 1010 29.83 839 24.78 -1.3 29.7 82 -3.9 24.9
22:10 1010 29.83 839 24.78 -1.3 29.7 82 -4 24.9
22:15 1010 29.83 839 24.78 -1.3 29.7 82 -4 24.8
22:20 1010 29.83 839 24.78 -1.3 29.6 83 -3.9 24.9
22:25 1010 29.83 839 24.78 -1.4 29.5 82 -4 24.8
22:30 1010 29.83 839 24.78 -1.4 29.5 83 -4 24.9
22:35 1010 29.83 839 24.78 -1.4 29.5 81 -4.1 24.5
22:40 1010 29.83 839 24.78 -1.4 29.5 82 -4 24.7
22:45 1010 29.83 839 24.78 -1.4 29.5 82 -4.2 24.5
22:50 1010 29.83 839 24.78 -1.4 29.5 81 -4.2 24.5
22:55 1010 29.83 839 24.78 -1.3 29.7 81 -4.2 24.5
23:00 1010 29.83 839 24.78 -1.3 29.7 81 -4.2 24.5
23:05 1010 29.83 839 24.78 -1.3 29.6 81 -4.2 24.5
23:10 1010 29.83 839 24.78 -1.3 29.6 81 -4.2 24.5
23:15 1010 29.83 839 24.78 -1.4 29.5 82 -4.1 24.6
23:20 1010 29.83 839 24.78 -1.4 29.4 81 -4.2 24.4
23:25 1010 29.83 839 24.78 -1.4 29.5 81 -4.2 24.5
23:30 1010 29.83 839 24.78 -1.4 29.5 81 -4.2 24.4
23:35 1010 29.83 839 24.78 -1.5 29.4 82 -4.1 24.6
23:40 1010 29.83 839 24.78 -1.4 29.4 82 -4.2 24.4
23:45 1010 29.83 839 24.78 -1.4 29.4 81 -4.3 24.3
23:50 1010 29.83 839 24.78 -1.5 29.3 82 -4.2 24.4
23:55 1010 29.83 839 24.78 -1.5 29.3 82 -4.1 24.5
24:00 1010 29.83 839 24.78 -1.6 29.2 82 -4.2 24.4